Mattawamkeag, Maine
Current Conditions -  °F | °C
As of 6:21 PM on Wednesday 26 Nov 2014 (Local Time) from KMLT Reporting Station
Light Snow Light Snow  
Wind Chill: 27°   Ceiling: 1200
Heat Index: 32°   Visibility: 1mi
Dew Point: 30°   Wind: 5mph
Humidity: 92%   Direction: 30°NNE
Pressure: 30.1"   Gusts: NA
Location:  45.51°N, 68.35°W
Report Text: KMLT 262321Z AUTO 03004KT 1SM -SN BR FEW006 OVC012 00/M01 A3010 RMK AO2 P0002 T00001011
Loading
Personal Weather Stations






























Interactive Weather Map New forecast layout! Learn more

10-Day Weather Forecast

Advertisements
Track Severe Weather on mobile